sensor_id;sensor_type;location;lat;lon;timestamp;pressure;altitude;pressure_sealevel;temperature;humidity
70684;BME280;58263;48.146;11.440;2023-09-07T00:00:09;96029.97;;;17.26;68.23
70684;BME280;58263;48.146;11.440;2023-09-07T00:02:36;96032.16;;;17.23;68.14
70684;BME280;58263;48.146;11.440;2023-09-07T00:05:01;96037.28;;;17.20;67.82
70684;BME280;58263;48.146;11.440;2023-09-07T00:07:26;96029.91;;;17.05;68.44
70684;BME280;58263;48.146;11.440;2023-09-07T00:09:51;96036.94;;;17.06;68.55
70684;BME280;58263;48.146;11.440;2023-09-07T00:12:17;96032.00;;;16.93;69.20
70684;BME280;58263;48.146;11.440;2023-09-07T00:14:42;96026.59;;;16.93;69.07
70684;BME280;58263;48.146;11.440;2023-09-07T00:17:07;96030.13;;;16.98;68.66
70684;BME280;58263;48.146;11.440;2023-09-07T00:19:32;96026.47;;;16.72;69.82
70684;BME280;58263;48.146;11.440;2023-09-07T00:22:01;96022.72;;;16.83;69.65
70684;BME280;58263;48.146;11.440;2023-09-07T00:24:27;96015.38;;;16.79;69.69
70684;BME280;58263;48.146;11.440;2023-09-07T00:26:53;96017.84;;;16.80;69.46
70684;BME280;58263;48.146;11.440;2023-09-07T00:29:18;96011.88;;;16.83;70.05
70684;BME280;58263;48.146;11.440;2023-09-07T00:31:43;96011.31;;;16.76;70.32
70684;BME280;58263;48.146;11.440;2023-09-07T00:34:09;96015.56;;;16.62;70.39
70684;BME280;58263;48.146;11.440;2023-09-07T00:36:34;96011.72;;;16.52;70.68
70684;BME280;58263;48.146;11.440;2023-09-07T00:39:00;96005.19;;;16.48;70.89
70684;BME280;58263;48.146;11.440;2023-09-07T00:41:26;96009.97;;;16.31;71.30
70684;BME280;58263;48.146;11.440;2023-09-07T00:43:51;96018.09;;;16.31;70.68
70684;BME280;58263;48.146;11.440;2023-09-07T00:46:16;96019.59;;;16.16;71.25
70684;BME280;58263;48.146;11.440;2023-09-07T00:48:42;96018.97;;;16.04;72.08
70684;BME280;58263;48.146;11.440;2023-09-07T00:51:07;96027.66;;;16.11;71.28
70684;BME280;58263;48.146;11.440;2023-09-07T00:53:33;96028.34;;;15.96;71.58
70684;BME280;58263;48.146;11.440;2023-09-07T00:55:58;96028.88;;;15.93;71.50
70684;BME280;58263;48.146;11.440;2023-09-07T00:58:24;96020.56;;;16.00;71.35
70684;BME280;58263;48.146;11.440;2023-09-07T01:00:49;96018.63;;;15.95;71.09
70684;BME280;58263;48.146;11.440;2023-09-07T01:03:15;96028.03;;;15.87;71.83
70684;BME280;58263;48.146;11.440;2023-09-07T01:05:52;96013.44;;;15.88;70.99
70684;BME280;58263;48.146;11.440;2023-09-07T01:08:25;96017.16;;;15.82;71.48
70684;BME280;58263;48.146;11.440;2023-09-07T01:10:51;96022.19;;;15.74;72.01
70684;BME280;58263;48.146;11.440;2023-09-07T01:13:18;96010.59;;;15.78;71.25
70684;BME280;58263;48.146;11.440;2023-09-07T01:15:44;96017.50;;;15.64;72.00
70684;BME280;58263;48.146;11.440;2023-09-07T01:18:10;96014.38;;;15.50;72.53
70684;BME280;58263;48.146;11.440;2023-09-07T01:20:36;96015.97;;;15.46;72.49
70684;BME280;58263;48.146;11.440;2023-09-07T01:23:03;96010.00;;;15.44;72.51
70684;BME280;58263;48.146;11.440;2023-09-07T01:25:29;96009.34;;;15.59;71.30
70684;BME280;58263;48.146;11.440;2023-09-07T01:27:56;96004.94;;;15.52;71.84
70684;BME280;58263;48.146;11.440;2023-09-07T01:30:21;96007.59;;;15.47;71.97
70684;BME280;58263;48.146;11.440;2023-09-07T01:32:47;96004.41;;;15.55;71.74
70684;BME280;58263;48.146;11.440;2023-09-07T01:35:14;96005.97;;;15.46;72.06
70684;BME280;58263;48.146;11.440;2023-09-07T01:37:42;96006.66;;;15.36;72.04
70684;BME280;58263;48.146;11.440;2023-09-07T01:40:07;96007.69;;;15.30;72.61
70684;BME280;58263;48.146;11.440;2023-09-07T01:42:33;96004.41;;;15.28;72.51
70684;BME280;58263;48.146;11.440;2023-09-07T01:44:59;96009.41;;;15.14;73.12
70684;BME280;58263;48.146;11.440;2023-09-07T01:47:24;96009.72;;;15.18;72.99
70684;BME280;58263;48.146;11.440;2023-09-07T01:49:49;96013.22;;;15.18;72.79
70684;BME280;58263;48.146;11.440;2023-09-07T01:52:15;96013.56;;;15.22;72.04
70684;BME280;58263;48.146;11.440;2023-09-07T01:54:40;96013.81;;;15.20;71.77
70684;BME280;58263;48.146;11.440;2023-09-07T01:57:05;96015.38;;;15.16;72.30
70684;BME280;58263;48.146;11.440;2023-09-07T01:59:30;96006.91;;;15.08;73.01
70684;BME280;58263;48.146;11.440;2023-09-07T02:01:56;96014.38;;;15.00;73.07
70684;BME280;58263;48.146;11.440;2023-09-07T02:04:21;96008.03;;;14.90;73.30
70684;BME280;58263;48.146;11.440;2023-09-07T02:06:46;96010.41;;;14.86;73.78
70684;BME280;58263;48.146;11.440;2023-09-07T02:09:11;96009.88;;;14.84;73.82
70684;BME280;58263;48.146;11.440;2023-09-07T02:11:37;96004.97;;;14.81;73.26
70684;BME280;58263;48.146;11.440;2023-09-07T02:14:02;96006.84;;;14.80;73.49
70684;BME280;58263;48.146;11.440;2023-09-07T02:16:27;96011.19;;;14.81;72.56
70684;BME280;58263;48.146;11.440;2023-09-07T02:19:01;96005.22;;;14.79;72.97
70684;BME280;58263;48.146;11.440;2023-09-07T02:21:26;96009.59;;;14.63;73.24
70684;BME280;58263;48.146;11.440;2023-09-07T02:23:51;96006.72;;;14.70;73.16
70684;BME280;58263;48.146;11.440;2023-09-07T02:26:17;96002.53;;;14.62;73.35
70684;BME280;58263;48.146;11.440;2023-09-07T02:28:43;96008.28;;;14.66;73.13
70684;BME280;58263;48.146;11.440;2023-09-07T02:31:08;96014.81;;;14.70;73.58
70684;BME280;58263;48.146;11.440;2023-09-07T02:33:34;96014.00;;;14.52;74.13
70684;BME280;58263;48.146;11.440;2023-09-07T02:36:00;96010.56;;;14.57;73.93
70684;BME280;58263;48.146;11.440;2023-09-07T02:38:26;96022.84;;;14.65;73.65
70684;BME280;58263;48.146;11.440;2023-09-07T02:40:51;96015.47;;;14.60;73.29
70684;BME280;58263;48.146;11.440;2023-09-07T02:43:16;96010.25;;;14.53;73.38
70684;BME280;58263;48.146;11.440;2023-09-07T02:45:42;96014.09;;;14.41;73.48
70684;BME280;58263;48.146;11.440;2023-09-07T02:48:07;96013.81;;;14.37;73.98
70684;BME280;58263;48.146;11.440;2023-09-07T02:50:34;96008.78;;;14.46;73.46
70684;BME280;58263;48.146;11.440;2023-09-07T02:53:00;96012.88;;;14.48;73.36
70684;BME280;58263;48.146;11.440;2023-09-07T02:55:26;96009.03;;;14.44;73.34
70684;BME280;58263;48.146;11.440;2023-09-07T02:57:51;96010.72;;;14.50;73.02
70684;BME280;58263;48.146;11.440;2023-09-07T03:00:17;96006.59;;;14.43;73.50
70684;BME280;58263;48.146;11.440;2023-09-07T03:02:43;96010.53;;;14.35;73.81
70684;BME280;58263;48.146;11.440;2023-09-07T03:05:08;96012.25;;;14.41;73.47
70684;BME280;58263;48.146;11.440;2023-09-07T03:07:34;96009.03;;;14.44;73.35
70684;BME280;58263;48.146;11.440;2023-09-07T03:09:59;96012.25;;;14.41;73.22
70684;BME280;58263;48.146;11.440;2023-09-07T03:12:25;96017.97;;;14.28;73.94
70684;BME280;58263;48.146;11.440;2023-09-07T03:14:50;96009.88;;;14.28;73.86
70684;BME280;58263;48.146;11.440;2023-09-07T03:17:16;96018.53;;;14.30;73.62
70684;BME280;58263;48.146;11.440;2023-09-07T03:19:42;96013.72;;;14.32;73.70
70684;BME280;58263;48.146;11.440;2023-09-07T03:22:07;96018.47;;;14.25;73.85
70684;BME280;58263;48.146;11.440;2023-09-07T03:24:33;96019.78;;;14.22;74.02
70684;BME280;58263;48.146;11.440;2023-09-07T03:26:58;96010.47;;;14.13;74.17
70684;BME280;58263;48.146;11.440;2023-09-07T03:29:24;96014.69;;;14.26;73.18
70684;BME280;58263;48.146;11.440;2023-09-07T03:31:50;96008.50;;;14.25;73.54
70684;BME280;58263;48.146;11.440;2023-09-07T03:34:15;96007.19;;;14.11;73.57
70684;BME280;58263;48.146;11.440;2023-09-07T03:36:40;96015.44;;;14.21;73.51
70684;BME280;58263;48.146;11.440;2023-09-07T03:39:06;96015.69;;;14.19;73.18
70684;BME280;58263;48.146;11.440;2023-09-07T03:41:33;96018.81;;;13.94;74.31
70684;BME280;58263;48.146;11.440;2023-09-07T03:43:59;96016.25;;;13.88;74.59
70684;BME280;58263;48.146;11.440;2023-09-07T03:46:25;96017.50;;;13.97;74.13
70684;BME280;58263;48.146;11.440;2023-09-07T03:48:51;96020.59;;;13.89;74.36
70684;BME280;58263;48.146;11.440;2023-09-07T03:51:16;96022.41;;;14.00;73.61
70684;BME280;58263;48.146;11.440;2023-09-07T03:53:41;96018.63;;;14.01;73.72
70684;BME280;58263;48.146;11.440;2023-09-07T03:56:07;96019.94;;;13.98;73.75
70684;BME280;58263;48.146;11.440;2023-09-07T03:58:32;96026.66;;;13.96;74.00
70684;BME280;58263;48.146;11.440;2023-09-07T04:00:59;96029.84;;;13.76;74.38
70684;BME280;58263;48.146;11.440;2023-09-07T04:03:24;96026.22;;;13.70;74.68
70684;BME280;58263;48.146;11.440;2023-09-07T04:05:50;96029.50;;;13.72;74.94
70684;BME280;58263;48.146;11.440;2023-09-07T04:08:16;96026.81;;;13.72;74.57
70684;BME280;58263;48.146;11.440;2023-09-07T04:10:41;96036.22;;;13.86;73.99
70684;BME280;58263;48.146;11.440;2023-09-07T04:13:06;96031.69;;;13.75;74.15
70684;BME280;58263;48.146;11.440;2023-09-07T04:15:33;96035.63;;;13.67;74.66
70684;BME280;58263;48.146;11.440;2023-09-07T04:17:59;96039.88;;;13.80;73.78
70684;BME280;58263;48.146;11.440;2023-09-07T04:20:24;96035.84;;;13.66;74.30
70684;BME280;58263;48.146;11.440;2023-09-07T04:22:51;96036.16;;;13.52;75.00
70684;BME280;58263;48.146;11.440;2023-09-07T04:25:16;96035.59;;;13.50;75.09
70684;BME280;58263;48.146;11.440;2023-09-07T04:27:42;96038.28;;;13.50;75.12
70684;BME280;58263;48.146;11.440;2023-09-07T04:30:07;96029.44;;;13.38;75.33
70684;BME280;58263;48.146;11.440;2023-09-07T04:32:33;96039.81;;;13.46;75.61
70684;BME280;58263;48.146;11.440;2023-09-07T04:34:58;96042.75;;;13.45;75.59
70684;BME280;58263;48.146;11.440;2023-09-07T04:37:24;96040.16;;;13.50;75.41
70684;BME280;58263;48.146;11.440;2023-09-07T04:39:51;96035.59;;;13.50;75.05
70684;BME280;58263;48.146;11.440;2023-09-07T04:42:18;96044.09;;;13.59;74.82
70684;BME280;58263;48.146;11.440;2023-09-07T04:44:43;96041.72;;;13.63;74.57
70684;BME280;58263;48.146;11.440;2023-09-07T04:47:08;96041.63;;;13.58;74.26
70684;BME280;58263;48.146;11.440;2023-09-07T04:49:34;96040.09;;;13.62;74.55
70684;BME280;58263;48.146;11.440;2023-09-07T04:51:59;96047.38;;;13.61;74.96
70684;BME280;58263;48.146;11.440;2023-09-07T04:54:24;96039.53;;;13.60;74.60
70684;BME280;58263;48.146;11.440;2023-09-07T04:56:49;96033.53;;;13.58;74.53
70684;BME280;58263;48.146;11.440;2023-09-07T04:59:15;96045.69;;;13.43;75.35
70684;BME280;58263;48.146;11.440;2023-09-07T05:01:40;96044.72;;;13.49;75.01
70684;BME280;58263;48.146;11.440;2023-09-07T05:04:06;96039.31;;;13.49;75.77
70684;BME280;58263;48.146;11.440;2023-09-07T05:06:31;96048.16;;;13.62;74.40
70684;BME280;58263;48.146;11.440;2023-09-07T05:08:59;96043.41;;;13.52;75.20
70684;BME280;58263;48.146;11.440;2023-09-07T05:11:24;96048.00;;;13.51;75.61
70684;BME280;58263;48.146;11.440;2023-09-07T05:13:49;96045.88;;;13.53;75.11
70684;BME280;58263;48.146;11.440;2023-09-07T05:16:15;96048.72;;;13.47;75.71
70684;BME280;58263;48.146;11.440;2023-09-07T05:18:41;96055.19;;;13.46;75.58
70684;BME280;58263;48.146;11.440;2023-09-07T05:21:15;96050.44;;;13.53;75.35
70684;BME280;58263;48.146;11.440;2023-09-07T05:23:41;96057.13;;;13.50;75.63
70684;BME280;58263;48.146;11.440;2023-09-07T05:26:07;96060.44;;;13.52;76.05
70684;BME280;58263;48.146;11.440;2023-09-07T05:28:32;96060.44;;;13.52;76.46
70684;BME280;58263;48.146;11.440;2023-09-07T05:30:57;96058.63;;;13.58;76.50
70684;BME280;58263;48.146;11.440;2023-09-07T05:33:22;96064.94;;;13.64;76.34
70684;BME280;58263;48.146;11.440;2023-09-07T05:35:48;96062.59;;;13.84;75.35
70684;BME280;58263;48.146;11.440;2023-09-07T05:38:13;96065.38;;;13.90;75.57
70684;BME280;58263;48.146;11.440;2023-09-07T05:40:44;96062.84;;;14.00;75.29
70684;BME280;58263;48.146;11.440;2023-09-07T05:43:10;96072.50;;;13.96;75.84
70684;BME280;58263;48.146;11.440;2023-09-07T05:45:39;96071.13;;;14.10;75.91
70684;BME280;58263;48.146;11.440;2023-09-07T05:48:05;96068.66;;;14.26;74.99
70684;BME280;58263;48.146;11.440;2023-09-07T05:50:35;96067.69;;;14.32;74.70
70684;BME280;58263;48.146;11.440;2023-09-07T05:53:02;96070.94;;;14.34;75.65
70684;BME280;58263;48.146;11.440;2023-09-07T05:55:27;96065.81;;;14.49;75.27
70684;BME280;58263;48.146;11.440;2023-09-07T05:57:57;96066.34;;;14.51;75.49
70684;BME280;58263;48.146;11.440;2023-09-07T06:00:23;96071.91;;;14.62;75.61
70684;BME280;58263;48.146;11.440;2023-09-07T06:02:49;96076.50;;;14.78;75.49
70684;BME280;58263;48.146;11.440;2023-09-07T06:05:15;96072.78;;;14.84;75.36
70684;BME280;58263;48.146;11.440;2023-09-07T06:07:40;96073.06;;;15.05;74.52
70684;BME280;58263;48.146;11.440;2023-09-07T06:10:06;96074.84;;;15.16;74.03
70684;BME280;58263;48.146;11.440;2023-09-07T06:12:32;96076.84;;;15.26;74.58
70684;BME280;58263;48.146;11.440;2023-09-07T06:14:58;96079.41;;;15.38;74.26
70684;BME280;58263;48.146;11.440;2023-09-07T06:17:23;96076.94;;;15.59;74.03
70684;BME280;58263;48.146;11.440;2023-09-07T06:19:49;96075.19;;;15.75;74.12
70684;BME280;58263;48.146;11.440;2023-09-07T06:22:14;96070.25;;;15.88;73.79
70684;BME280;58263;48.146;11.440;2023-09-07T06:24:40;96066.03;;;16.03;73.29
70684;BME280;58263;48.146;11.440;2023-09-07T06:27:05;96066.47;;;16.22;72.41
70684;BME280;58263;48.146;11.440;2023-09-07T06:29:30;96063.34;;;16.41;71.61
70684;BME280;58263;48.146;11.440;2023-09-07T06:31:55;96068.13;;;16.61;71.23
70684;BME280;58263;48.146;11.440;2023-09-07T06:34:21;96061.94;;;16.70;71.41
70684;BME280;58263;48.146;11.440;2023-09-07T06:36:46;96066.16;;;16.94;70.44
70684;BME280;58263;48.146;11.440;2023-09-07T06:39:11;96060.00;;;17.14;70.57
70684;BME280;58263;48.146;11.440;2023-09-07T06:41:37;96070.13;;;17.34;69.72
70684;BME280;58263;48.146;11.440;2023-09-07T06:44:02;96068.59;;;17.53;69.60
70684;BME280;58263;48.146;11.440;2023-09-07T06:46:27;96065.34;;;17.72;69.17
70684;BME280;58263;48.146;11.440;2023-09-07T06:48:53;96061.63;;;17.94;68.99
70684;BME280;58263;48.146;11.440;2023-09-07T06:51:18;96066.28;;;18.19;68.16
70684;BME280;58263;48.146;11.440;2023-09-07T06:53:43;96060.00;;;18.44;67.39
70684;BME280;58263;48.146;11.440;2023-09-07T06:56:08;96059.69;;;18.71;66.71
70684;BME280;58263;48.146;11.440;2023-09-07T06:58:35;96054.50;;;18.85;65.63
70684;BME280;58263;48.146;11.440;2023-09-07T07:01:01;96057.75;;;19.08;65.30
70684;BME280;58263;48.146;11.440;2023-09-07T07:03:28;96065.31;;;19.27;64.83
70684;BME280;58263;48.146;11.440;2023-09-07T07:05:54;96065.22;;;19.47;63.59
70684;BME280;58263;48.146;11.440;2023-09-07T07:08:20;96062.66;;;19.66;63.74
70684;BME280;58263;48.146;11.440;2023-09-07T07:10:45;96065.00;;;19.88;63.53
70684;BME280;58263;48.146;11.440;2023-09-07T07:13:11;96066.97;;;20.17;62.12
70684;BME280;58263;48.146;11.440;2023-09-07T07:15:36;96061.97;;;20.30;61.94
70684;BME280;58263;48.146;11.440;2023-09-07T07:18:01;96070.50;;;20.52;61.81
70684;BME280;58263;48.146;11.440;2023-09-07T07:20:30;96069.34;;;20.58;61.35
70684;BME280;58263;48.146;11.440;2023-09-07T07:22:56;96075.81;;;20.68;60.92
70684;BME280;58263;48.146;11.440;2023-09-07T07:25:21;96079.41;;;20.92;60.83
70684;BME280;58263;48.146;11.440;2023-09-07T07:27:46;96074.28;;;21.15;60.29
70684;BME280;58263;48.146;11.440;2023-09-07T07:30:12;96077.31;;;21.38;59.75
70684;BME280;58263;48.146;11.440;2023-09-07T07:32:37;96080.91;;;21.57;59.09
70684;BME280;58263;48.146;11.440;2023-09-07T07:35:03;96082.09;;;21.89;58.51
70684;BME280;58263;48.146;11.440;2023-09-07T07:37:28;96081.59;;;22.06;57.11
70684;BME280;58263;48.146;11.440;2023-09-07T07:39:54;96072.78;;;22.28;57.66
70684;BME280;58263;48.146;11.440;2023-09-07T07:42:19;96074.09;;;22.50;57.27
70684;BME280;58263;48.146;11.440;2023-09-07T07:44:45;96082.69;;;22.76;55.85
70684;BME280;58263;48.146;11.440;2023-09-07T07:47:11;96069.16;;;22.99;55.51
70684;BME280;58263;48.146;11.440;2023-09-07T07:49:36;96079.38;;;23.07;54.49
70684;BME280;58263;48.146;11.440;2023-09-07T07:52:02;96079.31;;;23.26;54.50
70684;BME280;58263;48.146;11.440;2023-09-07T07:54:27;96075.16;;;23.43;54.14
70684;BME280;58263;48.146;11.440;2023-09-07T07:56:54;96073.41;;;23.61;53.04
70684;BME280;58263;48.146;11.440;2023-09-07T07:59:19;96077.09;;;23.56;52.52
70684;BME280;58263;48.146;11.440;2023-09-07T08:01:44;96075.41;;;23.83;52.75
70684;BME280;58263;48.146;11.440;2023-09-07T08:04:10;96073.88;;;24.05;52.13
70684;BME280;58263;48.146;11.440;2023-09-07T08:06:36;96076.63;;;24.27;51.71
70684;BME280;58263;48.146;11.440;2023-09-07T08:09:02;96075.47;;;24.42;51.10
70684;BME280;58263;48.146;11.440;2023-09-07T08:11:27;96068.78;;;24.57;50.79
70684;BME280;58263;48.146;11.440;2023-09-07T08:13:53;96071.59;;;24.66;50.49
70684;BME280;58263;48.146;11.440;2023-09-07T08:16:18;96068.84;;;24.66;50.00
70684;BME280;58263;48.146;11.440;2023-09-07T08:18:43;96074.59;;;24.78;50.08
70684;BME280;58263;48.146;11.440;2023-09-07T08:21:09;96068.06;;;24.97;49.36
70684;BME280;58263;48.146;11.440;2023-09-07T08:23:34;96061.84;;;25.14;49.24
70684;BME280;58263;48.146;11.440;2023-09-07T08:25:59;96067.31;;;25.45;48.48
70684;BME280;58263;48.146;11.440;2023-09-07T08:28:25;96056.72;;;25.70;47.98
70684;BME280;58263;48.146;11.440;2023-09-07T08:30:51;96063.53;;;25.90;47.09
70684;BME280;58263;48.146;11.440;2023-09-07T08:33:19;96070.53;;;26.14;47.37
70684;BME280;58263;48.146;11.440;2023-09-07T08:35:44;96064.88;;;26.28;47.06
70684;BME280;58263;48.146;11.440;2023-09-07T08:38:10;96067.28;;;26.47;45.68
70684;BME280;58263;48.146;11.440;2023-09-07T08:40:36;96070.97;;;26.60;45.12
70684;BME280;58263;48.146;11.440;2023-09-07T08:43:08;96061.75;;;26.82;45.07
70684;BME280;58263;48.146;11.440;2023-09-07T08:45:40;96067.72;;;26.93;44.83
70684;BME280;58263;48.146;11.440;2023-09-07T08:48:08;96065.22;;;27.09;44.53
70684;BME280;58263;48.146;11.440;2023-09-07T08:50:35;96055.13;;;27.22;44.88
70684;BME280;58263;48.146;11.440;2023-09-07T08:53:03;96059.31;;;27.28;45.00
70684;BME280;58263;48.146;11.440;2023-09-07T08:55:29;96060.28;;;27.41;44.27
70684;BME280;58263;48.146;11.440;2023-09-07T08:57:55;96058.22;;;27.59;43.21
70684;BME280;58263;48.146;11.440;2023-09-07T09:00:21;96054.34;;;27.81;42.57
70684;BME280;58263;48.146;11.440;2023-09-07T09:02:48;96054.06;;;27.74;42.26
70684;BME280;58263;48.146;11.440;2023-09-07T09:05:14;96054.88;;;28.04;42.81
70684;BME280;58263;48.146;11.440;2023-09-07T09:07:39;96054.59;;;28.18;42.90
70684;BME280;58263;48.146;11.440;2023-09-07T09:10:06;96055.19;;;28.03;42.24
70684;BME280;58263;48.146;11.440;2023-09-07T09:12:31;96056.81;;;28.04;42.26
70684;BME280;58263;48.146;11.440;2023-09-07T09:14:59;96057.75;;;28.08;42.38
70684;BME280;58263;48.146;11.440;2023-09-07T09:17:24;96057.97;;;28.03;42.55
70684;BME280;58263;48.146;11.440;2023-09-07T09:19:49;96055.28;;;28.15;42.19
70684;BME280;58263;48.146;11.440;2023-09-07T09:22:15;96051.72;;;28.48;41.44
70684;BME280;58263;48.146;11.440;2023-09-07T09:24:40;96047.38;;;28.80;41.69
70684;BME280;58263;48.146;11.440;2023-09-07T09:27:05;96042.22;;;28.79;40.67
70684;BME280;58263;48.146;11.440;2023-09-07T09:29:34;96044.28;;;28.82;40.67
70684;BME280;58263;48.146;11.440;2023-09-07T09:32:03;96038.75;;;28.82;40.22
70684;BME280;58263;48.146;11.440;2023-09-07T09:34:33;96044.69;;;29.17;39.93
70684;BME280;58263;48.146;11.440;2023-09-07T09:36:59;96036.50;;;29.09;40.04
70684;BME280;58263;48.146;11.440;2023-09-07T09:39:25;96034.81;;;28.71;39.62
70684;BME280;58263;48.146;11.440;2023-09-07T09:41:52;96034.44;;;29.18;39.80
70684;BME280;58263;48.146;11.440;2023-09-07T09:44:20;96036.16;;;29.10;40.25
70684;BME280;58263;48.146;11.440;2023-09-07T09:46:47;96037.63;;;28.95;40.02
70684;BME280;58263;48.146;11.440;2023-09-07T09:49:13;96032.97;;;29.70;40.26
70684;BME280;58263;48.146;11.440;2023-09-07T09:51:41;96032.78;;;30.16;39.21
70684;BME280;58263;48.146;11.440;2023-09-07T09:54:08;96036.47;;;30.08;39.13
70684;BME280;58263;48.146;11.440;2023-09-07T09:56:34;96036.66;;;29.87;39.58
70684;BME280;58263;48.146;11.440;2023-09-07T09:58:59;96040.13;;;30.24;39.07
70684;BME280;58263;48.146;11.440;2023-09-07T10:01:25;96037.00;;;30.54;38.50
70684;BME280;58263;48.146;11.440;2023-09-07T10:03:51;96032.34;;;30.87;38.09
70684;BME280;58263;48.146;11.440;2023-09-07T10:06:23;96036.84;;;30.91;38.75
70684;BME280;58263;48.146;11.440;2023-09-07T10:09:05;96030.91;;;31.21;38.14
70684;BME280;58263;48.146;11.440;2023-09-07T10:11:39;96034.09;;;31.23;37.34
70684;BME280;58263;48.146;11.440;2023-09-07T10:14:06;96028.63;;;31.43;38.22
70684;BME280;58263;48.146;11.440;2023-09-07T10:16:45;96032.13;;;31.72;37.07
70684;BME280;58263;48.146;11.440;2023-09-07T10:19:21;96040.34;;;31.68;36.63
70684;BME280;58263;48.146;11.440;2023-09-07T10:21:48;96032.69;;;31.81;36.04
70684;BME280;58263;48.146;11.440;2023-09-07T10:24:33;96033.69;;;31.73;36.17
70684;BME280;58263;48.146;11.440;2023-09-07T10:27:03;96026.03;;;31.18;36.42
70684;BME280;58263;48.146;11.440;2023-09-07T10:29:43;96024.72;;;31.60;35.47
70684;BME280;58263;48.146;11.440;2023-09-07T10:32:09;96014.00;;;33.42;33.67
70684;BME280;58263;48.146;11.440;2023-09-07T10:34:37;96019.56;;;32.95;34.17
70684;BME280;58263;48.146;11.440;2023-09-07T10:37:04;96011.03;;;32.84;34.11
70684;BME280;58263;48.146;11.440;2023-09-07T10:39:32;96016.94;;;33.26;34.41
70684;BME280;58263;48.146;11.440;2023-09-07T10:41:58;96010.13;;;33.23;33.52
70684;BME280;58263;48.146;11.440;2023-09-07T10:44:27;96017.34;;;33.51;34.87
70684;BME280;58263;48.146;11.440;2023-09-07T10:46:53;96011.41;;;33.52;34.36
70684;BME280;58263;48.146;11.440;2023-09-07T10:49:19;96019.63;;;33.45;33.97
70684;BME280;58263;48.146;11.440;2023-09-07T10:51:46;96017.25;;;33.70;33.25
70684;BME280;58263;48.146;11.440;2023-09-07T10:54:18;96009.31;;;33.23;32.70
70684;BME280;58263;48.146;11.440;2023-09-07T10:56:45;96010.13;;;33.46;33.79
70684;BME280;58263;48.146;11.440;2023-09-07T10:59:13;96011.72;;;33.74;32.66
70684;BME280;58263;48.146;11.440;2023-09-07T11:01:38;96009.81;;;33.51;33.84
70684;BME280;58263;48.146;11.440;2023-09-07T11:04:04;96011.97;;;33.89;33.29
70684;BME280;58263;48.146;11.440;2023-09-07T11:06:30;96010.94;;;33.74;32.54
70684;BME280;58263;48.146;11.440;2023-09-07T11:08:59;96016.22;;;33.82;32.64
70684;BME280;58263;48.146;11.440;2023-09-07T11:11:24;95995.41;;;33.73;32.67
70684;BME280;58263;48.146;11.440;2023-09-07T11:13:51;96008.47;;;33.68;32.60
70684;BME280;58263;48.146;11.440;2023-09-07T11:16:16;96003.59;;;34.19;32.99
70684;BME280;58263;48.146;11.440;2023-09-07T11:18:42;96006.63;;;34.37;31.92
70684;BME280;58263;48.146;11.440;2023-09-07T11:21:07;96004.88;;;34.25;31.47
70684;BME280;58263;48.146;11.440;2023-09-07T11:23:33;96001.97;;;34.18;31.50
70684;BME280;58263;48.146;11.440;2023-09-07T11:26:12;95998.41;;;34.17;32.15
70684;BME280;58263;48.146;11.440;2023-09-07T11:28:38;95997.19;;;33.84;32.58
70684;BME280;58263;48.146;11.440;2023-09-07T11:31:03;95995.94;;;34.12;31.89
70684;BME280;58263;48.146;11.440;2023-09-07T11:33:32;95993.56;;;33.80;32.15
70684;BME280;58263;48.146;11.440;2023-09-07T11:35:57;95998.97;;;34.00;32.02
70684;BME280;58263;48.146;11.440;2023-09-07T11:38:23;95996.72;;;33.79;32.30
70684;BME280;58263;48.146;11.440;2023-09-07T11:40:48;95996.72;;;34.09;32.86
70684;BME280;58263;48.146;11.440;2023-09-07T11:43:15;95995.63;;;33.87;31.36
70684;BME280;58263;48.146;11.440;2023-09-07T11:45:42;95997.09;;;34.08;32.51
70684;BME280;58263;48.146;11.440;2023-09-07T11:48:08;95997.03;;;34.04;32.28
70684;BME280;58263;48.146;11.440;2023-09-07T11:50:34;95986.91;;;33.89;31.55
70684;BME280;58263;48.146;11.440;2023-09-07T11:53:00;95986.91;;;33.89;31.74
70684;BME280;58263;48.146;11.440;2023-09-07T11:55:26;95980.31;;;33.74;31.52
70684;BME280;58263;48.146;11.440;2023-09-07T11:57:51;95984.09;;;33.12;32.73
70684;BME280;58263;48.146;11.440;2023-09-07T12:00:17;95987.81;;;33.69;32.19
70684;BME280;58263;48.146;11.440;2023-09-07T12:02:42;95988.91;;;33.65;32.55
70684;BME280;58263;48.146;11.440;2023-09-07T12:05:08;95983.09;;;33.47;32.63
70684;BME280;58263;48.146;11.440;2023-09-07T12:07:35;95985.78;;;33.66;32.93
70684;BME280;58263;48.146;11.440;2023-09-07T12:10:00;95978.88;;;33.57;32.09
70684;BME280;58263;48.146;11.440;2023-09-07T12:12:26;95977.66;;;33.81;32.23
70684;BME280;58263;48.146;11.440;2023-09-07T12:14:51;95986.41;;;33.56;33.19
70684;BME280;58263;48.146;11.440;2023-09-07T12:17:16;95981.84;;;33.41;32.44
70684;BME280;58263;48.146;11.440;2023-09-07T12:19:42;95982.00;;;33.78;32.51
70684;BME280;58263;48.146;11.440;2023-09-07T12:22:10;95979.06;;;33.41;32.54
70684;BME280;58263;48.146;11.440;2023-09-07T12:24:36;95976.47;;;33.55;32.66
70684;BME280;58263;48.146;11.440;2023-09-07T12:27:01;95977.16;;;33.48;32.68
70684;BME280;58263;48.146;11.440;2023-09-07T12:29:26;95974.44;;;33.52;32.81
70684;BME280;58263;48.146;11.440;2023-09-07T12:31:52;95973.13;;;33.73;32.76
70684;BME280;58263;48.146;11.440;2023-09-07T12:34:17;95967.72;;;33.53;32.55
70684;BME280;58263;48.146;11.440;2023-09-07T12:36:42;95968.09;;;33.51;31.81
70684;BME280;58263;48.146;11.440;2023-09-07T12:39:08;95967.94;;;33.41;32.63
70684;BME280;58263;48.146;11.440;2023-09-07T12:41:33;95958.69;;;33.63;32.21
70684;BME280;58263;48.146;11.440;2023-09-07T12:43:58;95956.34;;;33.65;33.06